createdAt,value
2022-09-20T00:03:26.478Z,1.20
2022-09-20T00:08:31.396Z,1.08
2022-09-20T00:13:36.506Z,0.95
2022-09-20T00:18:42.055Z,1.10
2022-09-20T00:23:47.554Z,1.20
2022-09-20T00:28:52.695Z,1.30
2022-09-20T00:34:13.982Z,1.40
2022-09-20T00:39:19.673Z,1.02
2022-09-20T00:44:43.905Z,1.48
2022-09-20T00:49:48.648Z,1.20
2022-09-20T00:59:58.375Z,1.30
2022-09-20T01:05:01.905Z,1.25
2022-09-20T01:10:09.066Z,1.23
2022-09-20T01:15:14.481Z,1.20
2022-09-20T01:20:25.962Z,1.13
2022-09-20T01:26:04.001Z,1.52
2022-09-20T01:31:16.199Z,1.10
2022-09-20T01:36:26.775Z,1.20
2022-09-20T01:41:37.326Z,1.15
2022-09-20T01:46:45.116Z,1.17
2022-09-20T01:52:32.627Z,0.98
2022-09-20T01:58:09.148Z,1.10
2022-09-20T02:03:56.038Z,1.40
2022-09-20T02:09:42.460Z,1.30
2022-09-20T02:14:54.947Z,1.10
2022-09-20T02:20:24.264Z,1.10
2022-09-20T02:25:53.028Z,1.10
2022-09-20T02:31:03.457Z,1.20
2022-09-20T02:36:24.563Z,1.30
2022-09-20T02:42:01.382Z,1.30
2022-09-20T02:47:15.901Z,1.10
2022-09-20T02:52:30.459Z,1.20
2022-09-20T02:57:45.691Z,1.05
2022-09-20T03:03:01.957Z,1.50
2022-09-20T03:08:34.514Z,1.20
2022-09-20T03:13:52.038Z,1.20
2022-09-20T03:19:10.026Z,1.10
2022-09-20T03:24:24.370Z,1.10
2022-09-20T03:29:43.894Z,1.05
2022-09-20T03:34:58.218Z,1.13
2022-09-20T03:40:25.638Z,1.17
2022-09-20T03:45:47.391Z,1.20
2022-09-20T03:51:05.333Z,1.25
2022-09-20T03:56:33.572Z,1.00
2022-09-20T04:01:59.489Z,1.05
2022-09-20T04:07:22.379Z,1.33
2022-09-20T04:12:34.531Z,0.93
2022-09-20T04:17:50.225Z,1.20
2022-09-20T04:22:58.186Z,1.27
2022-09-20T04:28:11.770Z,1.05
2022-09-20T04:33:21.658Z,1.30
2022-09-20T04:38:26.470Z,1.10
2022-09-20T04:43:55.683Z,1.35
2022-09-20T04:49:50.118Z,1.10
2022-09-20T04:55:26.908Z,1.30
2022-09-20T05:00:44.594Z,1.33
2022-09-20T05:06:12.917Z,1.20
2022-09-20T05:11:55.276Z,1.20
2022-09-20T05:17:16.416Z,1.05
2022-09-20T05:22:53.203Z,1.20
2022-09-20T05:28:03.869Z,1.20
2022-09-20T05:33:20.482Z,1.08
2022-09-20T05:38:35.747Z,1.20
2022-09-20T05:43:51.924Z,1.08
2022-09-20T05:49:07.633Z,1.23
2022-09-20T05:54:29.265Z,0.90
2022-09-20T05:59:47.217Z,1.00
2022-09-20T06:05:01.430Z,1.00
2022-09-20T06:10:40.657Z,0.90
2022-09-20T06:15:57.540Z,1.00
2022-09-20T06:21:15.780Z,1.30
2022-09-20T06:26:24.135Z,1.33
2022-09-20T06:31:28.514Z,1.30
2022-09-20T06:36:54.826Z,1.17
2022-09-20T06:41:59.557Z,1.10
2022-09-20T06:47:03.661Z,1.17
2022-09-20T06:52:11.388Z,1.20
2022-09-20T06:57:18.765Z,1.20
2022-09-20T07:02:22.102Z,1.40
2022-09-20T07:07:27.645Z,1.20
2022-09-20T07:12:33.701Z,1.15
2022-09-20T07:17:37.794Z,1.02
2022-09-20T07:22:42.510Z,1.10
2022-09-20T07:27:47.230Z,1.23
2022-09-20T07:32:50.558Z,1.02
2022-09-20T07:38:00.255Z,1.20
2022-09-20T07:43:03.786Z,1.17
2022-09-20T07:48:08.075Z,1.10
2022-09-20T07:53:12.761Z,1.15
2022-09-20T07:58:16.939Z,1.20
2022-09-20T08:03:20.246Z,1.00
2022-09-20T08:08:25.117Z,1.20
2022-09-20T08:18:57.427Z,1.10
2022-09-20T08:24:04.143Z,1.00
2022-09-20T08:29:08.898Z,1.10
2022-09-20T08:34:15.148Z,1.35
2022-09-20T08:45:00.444Z,1.38
2022-09-20T08:50:10.200Z,1.35
2022-09-20T08:55:20.264Z,1.60
2022-09-20T09:00:27.393Z,1.20
2022-09-20T09:05:35.673Z,0.90
2022-09-20T09:10:43.133Z,1.20
2022-09-20T09:15:54.583Z,1.02
2022-09-20T09:21:00.159Z,1.20
2022-09-20T09:26:07.741Z,1.08
2022-09-20T09:31:23.299Z,1.27
2022-09-20T09:36:28.843Z,1.10
2022-09-20T09:41:36.206Z,1.25
2022-09-20T09:46:41.560Z,1.17
2022-09-20T09:52:03.419Z,1.35
2022-09-20T09:57:29.210Z,1.40
2022-09-20T10:03:01.984Z,0.93
2022-09-20T10:08:18.475Z,0.90
2022-09-20T10:13:29.726Z,1.00
2022-09-20T10:18:44.004Z,0.95
2022-09-20T10:24:13.187Z,0.95
2022-09-20T10:29:29.073Z,1.00
2022-09-20T10:34:57.964Z,1.23
2022-09-20T10:40:09.116Z,0.90
2022-09-20T10:45:53.246Z,1.10
2022-09-20T10:50:50.978Z,1.30
2022-09-20T10:56:09.308Z,1.40
2022-09-20T11:01:23.063Z,1.27
2022-09-20T11:06:44.381Z,1.20
2022-09-20T11:11:52.722Z,1.20
2022-09-20T11:17:03.904Z,1.10
2022-09-20T11:22:11.844Z,1.35
2022-09-20T11:27:20.836Z,1.45
2022-09-20T11:32:29.056Z,1.40
2022-09-20T11:37:39.077Z,1.40
2022-09-20T11:42:43.438Z,1.30
2022-09-20T11:47:55.313Z,1.27
2022-09-20T11:53:12.148Z,1.40
2022-09-20T11:58:20.022Z,1.10
2022-09-20T12:03:30.299Z,1.23
2022-09-20T12:08:37.393Z,1.20
2022-09-20T12:13:43.063Z,1.23
2022-09-20T12:19:04.360Z,1.30
2022-09-20T12:24:20.196Z,1.40
2022-09-20T12:30:15.806Z,1.00
2022-09-20T12:35:56.193Z,1.30
2022-09-20T12:41:05.041Z,1.50
2022-09-20T12:46:12.162Z,1.30
2022-09-20T12:51:41.253Z,1.25
2022-09-20T12:56:47.312Z,1.10
2022-09-20T13:01:51.663Z,1.20
2022-09-20T13:07:43.826Z,1.00
2022-09-20T13:12:53.939Z,1.00
2022-09-20T13:18:03.123Z,1.17
2022-09-20T13:23:06.781Z,1.30
2022-09-20T13:28:22.924Z,1.10
2022-09-20T13:33:26.879Z,1.25
2022-09-20T13:38:33.717Z,1.17
2022-09-20T13:43:42.570Z,0.93
2022-09-20T13:48:49.156Z,1.13
2022-09-20T13:53:52.668Z,1.10
2022-09-20T13:58:59.093Z,0.93
2022-09-20T14:04:08.423Z,1.10
2022-09-20T14:09:21.671Z,1.00
2022-09-20T14:14:26.987Z,1.05
2022-09-20T14:19:35.794Z,1.15
2022-09-20T14:24:39.857Z,1.48
2022-09-20T14:29:47.536Z,1.30
2022-09-20T14:35:00.545Z,1.30
2022-09-20T14:40:08.303Z,1.52
2022-09-20T14:45:25.685Z,1.23
2022-09-20T14:50:32.746Z,3.90
2022-09-20T14:55:38.552Z,1.48
2022-09-20T15:00:53.526Z,1.88
2022-09-20T15:05:58.080Z,1.80
2022-09-20T15:11:02.719Z,2.65
2022-09-20T15:21:13.345Z,1.30
2022-09-20T15:26:21.333Z,1.20
2022-09-20T15:31:26.746Z,1.17
2022-09-20T15:36:33.259Z,1.17
2022-09-20T15:41:37.527Z,1.40
2022-09-20T15:46:43.671Z,1.63
2022-09-20T15:51:49.147Z,1.70
2022-09-20T15:56:54.207Z,2.00
2022-09-20T16:02:00.875Z,1.88
2022-09-20T16:07:07.406Z,1.50
2022-09-20T16:12:11.734Z,1.40
2022-09-20T16:17:18.019Z,1.77
2022-09-20T16:22:24.035Z,1.73
2022-09-20T16:27:28.267Z,1.50
2022-09-20T16:32:33.536Z,1.60
2022-09-20T16:37:38.102Z,2.00
2022-09-20T16:42:42.453Z,2.38
2022-09-20T16:47:48.443Z,4.40
2022-09-20T16:52:52.717Z,1.88
2022-09-20T16:57:57.558Z,2.08
2022-09-20T17:03:03.243Z,1.85
2022-09-20T17:08:07.045Z,2.22
2022-09-20T17:13:10.961Z,2.10
2022-09-20T17:18:17.793Z,2.37
2022-09-20T17:23:21.286Z,2.22
2022-09-20T17:28:26.300Z,2.10
2022-09-20T17:33:31.657Z,1.90
2022-09-20T17:38:40.222Z,2.22
2022-09-20T17:43:45.078Z,2.28
2022-09-20T17:48:53.494Z,3.00
2022-09-20T17:53:58.901Z,4.22
2022-09-20T17:59:05.417Z,4.35
2022-09-20T18:04:10.925Z,4.40
2022-09-20T18:09:17.251Z,4.75
2022-09-20T18:14:22.916Z,4.72
2022-09-20T18:19:33.566Z,5.90
2022-09-20T18:24:37.403Z,5.95
2022-09-20T18:29:41.806Z,5.88
2022-09-20T18:34:51.262Z,6.28
2022-09-20T18:39:55.744Z,6.95
2022-09-20T18:44:59.632Z,7.43
2022-09-20T18:50:04.752Z,7.23
2022-09-20T18:55:09.221Z,6.75
2022-09-20T19:00:16.797Z,7.25
2022-09-20T19:05:32.136Z,7.13
2022-09-20T19:10:43.741Z,7.05
2022-09-20T19:16:05.988Z,6.60
2022-09-20T19:21:24.184Z,6.20
2022-09-20T19:26:30.102Z,5.38
2022-09-20T19:31:36.345Z,5.43
2022-09-20T19:36:58.950Z,6.60
2022-09-20T19:42:15.816Z,6.85
2022-09-20T19:47:32.346Z,6.70
2022-09-20T19:52:39.489Z,5.90
2022-09-20T19:57:47.868Z,5.43
2022-09-20T20:02:51.749Z,5.47
2022-09-20T20:08:15.036Z,6.23
2022-09-20T20:13:42.369Z,5.72
2022-09-20T20:19:00.879Z,5.82
2022-09-20T20:24:17.129Z,7.10
2022-09-20T20:29:20.721Z,8.45
2022-09-20T20:34:26.515Z,7.50
2022-09-20T20:39:32.886Z,6.68
2022-09-20T20:44:36.445Z,7.43
2022-09-20T20:49:40.896Z,7.65
2022-09-20T20:54:45.661Z,9.25
2022-09-20T21:04:52.845Z,8.60
2022-09-20T21:09:58.148Z,6.97
2022-09-20T21:15:01.605Z,7.25
2022-09-20T21:20:07.853Z,8.07
2022-09-20T21:25:12.757Z,7.93
2022-09-20T21:30:17.081Z,6.90
2022-09-20T21:35:21.675Z,8.80
2022-09-20T21:40:27.661Z,9.52
2022-09-20T21:45:31.880Z,11.85
2022-09-20T21:50:36.231Z,15.65
2022-09-20T21:55:41.674Z,28.73
2022-09-20T22:00:45.732Z,16.10
2022-09-20T22:05:50.030Z,11.97
2022-09-20T22:10:58.651Z,12.77
2022-09-20T22:16:07.744Z,8.43
2022-09-20T22:21:14.240Z,8.48
2022-09-20T22:26:21.299Z,9.10
2022-09-20T22:31:26.955Z,8.23
2022-09-20T22:36:32.973Z,8.60
2022-09-20T22:41:39.535Z,8.57
2022-09-20T22:46:43.692Z,7.90
2022-09-20T22:51:47.799Z,8.93
2022-09-20T22:56:53.238Z,7.37
2022-09-20T23:01:57.243Z,7.70
2022-09-20T23:07:01.446Z,8.00
2022-09-20T23:12:06.448Z,7.47
2022-09-20T23:17:10.458Z,6.97
2022-09-20T23:22:14.554Z,8.80
2022-09-20T23:27:20.268Z,25.30
2022-09-20T23:32:23.618Z,25.58
2022-09-20T23:37:27.701Z,12.98
2022-09-20T23:42:32.406Z,17.13
2022-09-20T23:47:36.445Z,15.30
2022-09-20T23:52:39.764Z,50.63
2022-09-20T23:57:45.278Z,13.15
